sensor_id;sensor_type;location;lat;lon;timestamp;pressure;altitude;pressure_sealevel;temperature;humidity
11678;BME280;5895;41.950;24.372;2023-07-13T00:00:50;87479.72;;;19.18;63.98
11678;BME280;5895;41.950;24.372;2023-07-13T00:03:17;87478.13;;;19.17;64.33
11678;BME280;5895;41.950;24.372;2023-07-13T00:05:45;87477.63;;;19.20;63.89
11678;BME280;5895;41.950;24.372;2023-07-13T00:08:14;87479.72;;;19.18;64.19
11678;BME280;5895;41.950;24.372;2023-07-13T00:10:41;87474.47;;;19.23;64.01
11678;BME280;5895;41.950;24.372;2023-07-13T00:13:12;87470.53;;;19.25;63.82
11678;BME280;5895;41.950;24.372;2023-07-13T00:15:41;87469.22;;;19.28;63.90
11678;BME280;5895;41.950;24.372;2023-07-13T00:18:08;87463.44;;;19.26;63.35
11678;BME280;5895;41.950;24.372;2023-07-13T00:20:35;87458.41;;;19.24;63.54
11678;BME280;5895;41.950;24.372;2023-07-13T00:23:03;87459.22;;;19.25;63.27
11678;BME280;5895;41.950;24.372;2023-07-13T00:25:30;87461.06;;;19.19;63.58
11678;BME280;5895;41.950;24.372;2023-07-13T00:27:57;87453.41;;;19.18;64.02
11678;BME280;5895;41.950;24.372;2023-07-13T00:30:25;87459.47;;;19.18;64.09
11678;BME280;5895;41.950;24.372;2023-07-13T00:32:53;87453.41;;;19.18;64.06
11678;BME280;5895;41.950;24.372;2023-07-13T00:35:21;87455.53;;;19.16;64.00
11678;BME280;5895;41.950;24.372;2023-07-13T00:37:49;87440.78;;;19.10;63.88
11678;BME280;5895;41.950;24.372;2023-07-13T00:40:17;87446.81;;;19.10;64.08
11678;BME280;5895;41.950;24.372;2023-07-13T00:42:45;87452.34;;;19.09;63.94
11678;BME280;5895;41.950;24.372;2023-07-13T00:48:21;87447.06;;;18.98;65.94
11678;BME280;5895;41.950;24.372;2023-07-13T00:50:51;87444.94;;;18.95;65.24
11678;BME280;5895;41.950;24.372;2023-07-13T00:53:20;87443.38;;;18.94;64.63
11678;BME280;5895;41.950;24.372;2023-07-13T00:55:49;87447.06;;;18.93;64.77
11678;BME280;5895;41.950;24.372;2023-07-13T00:58:17;87441.00;;;18.93;64.79
11678;BME280;5895;41.950;24.372;2023-07-13T01:00:47;87449.16;;;18.91;65.46
11678;BME280;5895;41.950;24.372;2023-07-13T01:03:18;87438.63;;;18.91;64.42
11678;BME280;5895;41.950;24.372;2023-07-13T01:05:47;87438.84;;;18.85;65.71
11678;BME280;5895;41.950;24.372;2023-07-13T01:08:15;87446.22;;;18.83;65.33
11678;BME280;5895;41.950;24.372;2023-07-13T01:10:51;87436.47;;;18.78;68.92
11678;BME280;5895;41.950;24.372;2023-07-13T01:13:18;87433.84;;;18.73;65.47
11678;BME280;5895;41.950;24.372;2023-07-13T01:15:47;87431.41;;;18.66;65.81
11678;BME280;5895;41.950;24.372;2023-07-13T01:18:18;87437.00;;;18.70;65.86
11678;BME280;5895;41.950;24.372;2023-07-13T01:20:50;87432.44;;;18.60;67.78
11678;BME280;5895;41.950;24.372;2023-07-13T01:23:18;87427.44;;;18.54;65.57
11678;BME280;5895;41.950;24.372;2023-07-13T01:25:46;87431.34;;;18.46;66.07
11678;BME280;5895;41.950;24.372;2023-07-13T01:28:13;87435.25;;;18.38;65.64
11678;BME280;5895;41.950;24.372;2023-07-13T01:30:44;87441.53;;;18.32;66.45
11678;BME280;5895;41.950;24.372;2023-07-13T01:33:13;87436.78;;;18.29;66.23
11678;BME280;5895;41.950;24.372;2023-07-13T01:35:40;87436.22;;;18.22;66.96
11678;BME280;5895;41.950;24.372;2023-07-13T01:38:10;87429.88;;;18.18;67.88
11678;BME280;5895;41.950;24.372;2023-07-13T01:40:38;87432.53;;;18.13;67.64
11678;BME280;5895;41.950;24.372;2023-07-13T01:43:05;87430.91;;;18.12;67.52
11678;BME280;5895;41.950;24.372;2023-07-13T01:45:33;87435.63;;;18.10;67.48
11678;BME280;5895;41.950;24.372;2023-07-13T01:48:00;87434.31;;;18.07;67.60
11678;BME280;5895;41.950;24.372;2023-07-13T01:50:28;87431.94;;;18.06;67.77
11678;BME280;5895;41.950;24.372;2023-07-13T01:52:55;87437.16;;;18.01;67.67
11678;BME280;5895;41.950;24.372;2023-07-13T01:55:24;87429.50;;;17.94;68.56
11678;BME280;5895;41.950;24.372;2023-07-13T01:57:51;87437.69;;;17.97;68.35
11678;BME280;5895;41.950;24.372;2023-07-13T02:00:18;87442.38;;;17.95;68.73
11678;BME280;5895;41.950;24.372;2023-07-13T02:02:46;87439.22;;;17.93;69.14
11678;BME280;5895;41.950;24.372;2023-07-13T02:05:13;87441.84;;;17.93;69.38
11678;BME280;5895;41.950;24.372;2023-07-13T02:07:41;87437.63;;;17.92;69.07
11678;BME280;5895;41.950;24.372;2023-07-13T02:10:09;87444.50;;;17.98;69.24
11678;BME280;5895;41.950;24.372;2023-07-13T02:12:39;87439.28;;;18.04;69.26
11678;BME280;5895;41.950;24.372;2023-07-13T02:15:08;87442.44;;;18.06;68.39
11678;BME280;5895;41.950;24.372;2023-07-13T02:17:36;87443.47;;;18.05;68.90
11678;BME280;5895;41.950;24.372;2023-07-13T02:20:05;87444.53;;;18.04;68.95
11678;BME280;5895;41.950;24.372;2023-07-13T02:22:32;87444.53;;;18.04;69.03
11678;BME280;5895;41.950;24.372;2023-07-13T02:25:00;87446.63;;;18.02;68.70
11678;BME280;5895;41.950;24.372;2023-07-13T02:27:27;87442.94;;;17.97;68.86
11678;BME280;5895;41.950;24.372;2023-07-13T02:29:56;87454.47;;;17.96;70.03
11678;BME280;5895;41.950;24.372;2023-07-13T02:32:23;87451.28;;;17.94;69.36
11678;BME280;5895;41.950;24.372;2023-07-13T02:34:51;87464.41;;;17.94;69.40
11678;BME280;5895;41.950;24.372;2023-07-13T02:37:19;87463.91;;;17.92;69.64
11678;BME280;5895;41.950;24.372;2023-07-13T02:39:47;87452.31;;;17.88;69.43
11678;BME280;5895;41.950;24.372;2023-07-13T02:42:14;87453.34;;;17.87;70.06
11678;BME280;5895;41.950;24.372;2023-07-13T02:44:42;87458.09;;;17.85;70.21
11678;BME280;5895;41.950;24.372;2023-07-13T02:47:11;87458.84;;;17.81;71.30
11678;BME280;5895;41.950;24.372;2023-07-13T02:49:39;87452.75;;;17.75;70.40
11678;BME280;5895;41.950;24.372;2023-07-13T02:52:06;87459.31;;;17.78;70.06
11678;BME280;5895;41.950;24.372;2023-07-13T02:54:33;87464.84;;;17.76;70.51
11678;BME280;5895;41.950;24.372;2023-07-13T02:57:01;87458.72;;;17.70;70.78
11678;BME280;5895;41.950;24.372;2023-07-13T02:59:28;87456.59;;;17.67;70.05
11678;BME280;5895;41.950;24.372;2023-07-13T03:01:56;87453.13;;;17.62;70.35
11678;BME280;5895;41.950;24.372;2023-07-13T03:04:24;87455.75;;;17.57;71.36
11678;BME280;5895;41.950;24.372;2023-07-13T03:06:52;87462.53;;;17.53;71.14
11678;BME280;5895;41.950;24.372;2023-07-13T03:09:23;87459.34;;;17.51;70.90
11678;BME280;5895;41.950;24.372;2023-07-13T03:11:53;87461.19;;;17.50;72.00
11678;BME280;5895;41.950;24.372;2023-07-13T03:14:20;87460.41;;;17.50;71.72
11678;BME280;5895;41.950;24.372;2023-07-13T03:16:48;87461.97;;;17.45;71.75
11678;BME280;5895;41.950;24.372;2023-07-13T03:19:15;87459.34;;;17.45;71.50
11678;BME280;5895;41.950;24.372;2023-07-13T03:21:44;87463.75;;;17.45;72.27
11678;BME280;5895;41.950;24.372;2023-07-13T03:24:12;87460.13;;;17.46;71.30
11678;BME280;5895;41.950;24.372;2023-07-13T03:26:39;87462.50;;;17.48;71.96
11678;BME280;5895;41.950;24.372;2023-07-13T03:29:06;87462.69;;;17.41;71.74
11678;BME280;5895;41.950;24.372;2023-07-13T03:31:35;87454.00;;;17.35;71.52
11678;BME280;5895;41.950;24.372;2023-07-13T03:34:03;87459.25;;;17.35;72.14
11678;BME280;5895;41.950;24.372;2023-07-13T03:36:31;87458.69;;;17.33;71.81
11678;BME280;5895;41.950;24.372;2023-07-13T03:39:02;87454.00;;;17.35;73.95
11678;BME280;5895;41.950;24.372;2023-07-13T03:41:34;87461.31;;;17.33;71.91
11678;BME280;5895;41.950;24.372;2023-07-13T03:44:01;87454.47;;;17.32;72.11
11678;BME280;5895;41.950;24.372;2023-07-13T03:46:29;87461.31;;;17.33;72.64
11678;BME280;5895;41.950;24.372;2023-07-13T03:48:57;87460.28;;;17.34;72.35
11678;BME280;5895;41.950;24.372;2023-07-13T03:51:24;87463.19;;;17.38;72.52
11678;BME280;5895;41.950;24.372;2023-07-13T03:53:51;87463.50;;;17.41;72.23
11678;BME280;5895;41.950;24.372;2023-07-13T03:56:20;87468.22;;;17.44;72.14
11678;BME280;5895;41.950;24.372;2023-07-13T03:58:49;87469.00;;;17.45;72.62
11678;BME280;5895;41.950;24.372;2023-07-13T04:01:18;87467.75;;;17.48;72.87
11678;BME280;5895;41.950;24.372;2023-07-13T04:03:47;87465.16;;;17.53;72.06
11678;BME280;5895;41.950;24.372;2023-07-13T04:06:16;87465.69;;;17.55;72.22
11678;BME280;5895;41.950;24.372;2023-07-13T04:08:47;87458.91;;;17.59;72.38
11678;BME280;5895;41.950;24.372;2023-07-13T04:11:16;87458.91;;;17.59;71.81
11678;BME280;5895;41.950;24.372;2023-07-13T04:13:45;87468.34;;;17.60;73.45
11678;BME280;5895;41.950;24.372;2023-07-13T04:16:13;87469.13;;;17.60;72.76
11678;BME280;5895;41.950;24.372;2023-07-13T04:18:40;87464.44;;;17.62;73.14
11678;BME280;5895;41.950;24.372;2023-07-13T04:21:08;87460.00;;;17.63;72.80
11678;BME280;5895;41.950;24.372;2023-07-13T04:23:37;87465.25;;;17.63;72.81
11678;BME280;5895;41.950;24.372;2023-07-13T04:26:06;87467.59;;;17.64;73.62
11678;BME280;5895;41.950;24.372;2023-07-13T04:28:34;87473.91;;;17.63;73.54
11678;BME280;5895;41.950;24.372;2023-07-13T04:31:03;87469.44;;;17.64;74.44
11678;BME280;5895;41.950;24.372;2023-07-13T04:33:31;87466.81;;;17.64;73.33
11678;BME280;5895;41.950;24.372;2023-07-13T04:35:58;87457.41;;;17.68;72.86
11678;BME280;5895;41.950;24.372;2023-07-13T04:38:29;87463.25;;;17.75;73.27
11678;BME280;5895;41.950;24.372;2023-07-13T04:40:59;87463.03;;;17.82;72.48
11678;BME280;5895;41.950;24.372;2023-07-13T04:43:26;87464.91;;;17.86;72.18
11678;BME280;5895;41.950;24.372;2023-07-13T04:45:54;87464.19;;;17.96;71.27
11678;BME280;5895;41.950;24.372;2023-07-13T04:48:23;87471.59;;;18.04;71.60
11678;BME280;5895;41.950;24.372;2023-07-13T04:50:54;87460.84;;;18.11;72.10
11678;BME280;5895;41.950;24.372;2023-07-13T04:53:22;87459.59;;;18.23;70.23
11678;BME280;5895;41.950;24.372;2023-07-13T04:55:50;87459.44;;;18.35;70.15
11678;BME280;5895;41.950;24.372;2023-07-13T04:58:17;87461.84;;;18.47;70.17
11678;BME280;5895;41.950;24.372;2023-07-13T05:00:44;87461.63;;;18.59;69.26
11678;BME280;5895;41.950;24.372;2023-07-13T05:03:12;87461.16;;;18.72;68.68
11678;BME280;5895;41.950;24.372;2023-07-13T05:05:40;87469.63;;;18.84;69.04
11678;BME280;5895;41.950;24.372;2023-07-13T05:08:08;87465.19;;;18.95;68.25
11678;BME280;5895;41.950;24.372;2023-07-13T05:10:35;87462.88;;;19.09;68.16
11678;BME280;5895;41.950;24.372;2023-07-13T05:13:03;87463.16;;;19.22;68.24
11678;BME280;5895;41.950;24.372;2023-07-13T05:15:30;87469.75;;;19.35;68.88
11678;BME280;5895;41.950;24.372;2023-07-13T05:17:57;87465.06;;;19.47;69.61
11678;BME280;5895;41.950;24.372;2023-07-13T05:20:24;87473.25;;;19.61;68.53
11678;BME280;5895;41.950;24.372;2023-07-13T05:22:53;87479.81;;;19.74;68.00
11678;BME280;5895;41.950;24.372;2023-07-13T05:25:20;87475.06;;;19.86;67.13
11678;BME280;5895;41.950;24.372;2023-07-13T05:27:48;87474.56;;;19.99;66.72
11678;BME280;5895;41.950;24.372;2023-07-13T05:30:15;87469.53;;;20.13;66.85
11678;BME280;5895;41.950;24.372;2023-07-13T05:32:42;87473.50;;;20.26;65.93
11678;BME280;5895;41.950;24.372;2023-07-13T05:35:09;87469.22;;;20.40;66.22
11678;BME280;5895;41.950;24.372;2023-07-13T05:37:37;87467.91;;;20.53;66.69
11678;BME280;5895;41.950;24.372;2023-07-13T05:40:07;87467.59;;;20.65;66.06
11678;BME280;5895;41.950;24.372;2023-07-13T05:42:35;87474.19;;;20.77;64.61
11678;BME280;5895;41.950;24.372;2023-07-13T05:45:03;87472.81;;;20.90;64.28
11678;BME280;5895;41.950;24.372;2023-07-13T05:47:30;87481.19;;;21.02;64.05
11678;BME280;5895;41.950;24.372;2023-07-13T05:49:58;87477.44;;;21.13;63.84
11678;BME280;5895;41.950;24.372;2023-07-13T05:52:25;87486.91;;;21.30;63.19
11678;BME280;5895;41.950;24.372;2023-07-13T05:54:52;87490.78;;;21.43;61.84
11678;BME280;5895;41.950;24.372;2023-07-13T05:57:21;87484.13;;;21.55;62.22
11678;BME280;5895;41.950;24.372;2023-07-13T05:59:48;87485.09;;;21.70;61.59
11678;BME280;5895;41.950;24.372;2023-07-13T06:02:16;87486.06;;;21.84;61.06
11678;BME280;5895;41.950;24.372;2023-07-13T06:04:43;87483.06;;;21.96;60.83
11678;BME280;5895;41.950;24.372;2023-07-13T06:07:10;87485.06;;;22.09;60.75
11678;BME280;5895;41.950;24.372;2023-07-13T06:09:38;87488.44;;;22.20;60.07
11678;BME280;5895;41.950;24.372;2023-07-13T06:12:06;87483.88;;;22.30;60.10
11678;BME280;5895;41.950;24.372;2023-07-13T06:14:35;87483.53;;;22.37;59.80
11678;BME280;5895;41.950;24.372;2023-07-13T06:17:02;87488.75;;;22.47;59.68
11678;BME280;5895;41.950;24.372;2023-07-13T06:19:30;87482.81;;;22.55;59.82
11678;BME280;5895;41.950;24.372;2023-07-13T06:21:57;87480.63;;;22.67;59.21
11678;BME280;5895;41.950;24.372;2023-07-13T06:24:25;87482.63;;;22.76;58.58
11678;BME280;5895;41.950;24.372;2023-07-13T06:26:52;87486.50;;;22.83;58.58
11678;BME280;5895;41.950;24.372;2023-07-13T06:29:20;87485.66;;;22.93;58.54
11678;BME280;5895;41.950;24.372;2023-07-13T06:31:48;87488.19;;;23.03;57.73
11678;BME280;5895;41.950;24.372;2023-07-13T06:34:16;87481.72;;;23.14;58.41
11678;BME280;5895;41.950;24.372;2023-07-13T06:36:44;87474.72;;;23.23;58.37
11678;BME280;5895;41.950;24.372;2023-07-13T06:39:11;87481.47;;;23.35;57.59
11678;BME280;5895;41.950;24.372;2023-07-13T06:41:38;87478.66;;;23.45;56.89
11678;BME280;5895;41.950;24.372;2023-07-13T06:44:06;87484.91;;;23.54;56.44
11678;BME280;5895;41.950;24.372;2023-07-13T06:46:33;87482.47;;;23.63;56.03
11678;BME280;5895;41.950;24.372;2023-07-13T06:49:02;87475.44;;;23.72;55.66
11678;BME280;5895;41.950;24.372;2023-07-13T06:51:29;87478.25;;;23.81;55.80
11678;BME280;5895;41.950;24.372;2023-07-13T06:53:57;87478.09;;;23.91;55.85
11678;BME280;5895;41.950;24.372;2023-07-13T06:56:24;87474.22;;;24.02;56.26
11678;BME280;5895;41.950;24.372;2023-07-13T06:58:51;87477.47;;;24.13;55.65
11678;BME280;5895;41.950;24.372;2023-07-13T07:01:18;87482.34;;;24.24;55.11
11678;BME280;5895;41.950;24.372;2023-07-13T07:03:46;87483.81;;;24.36;55.21
11678;BME280;5895;41.950;24.372;2023-07-13T07:06:16;87476.16;;;24.48;54.63
11678;BME280;5895;41.950;24.372;2023-07-13T07:08:44;87469.88;;;24.58;54.19
11678;BME280;5895;41.950;24.372;2023-07-13T07:11:14;87473.38;;;24.72;54.47
11678;BME280;5895;41.950;24.372;2023-07-13T07:13:41;87478.19;;;24.84;54.39
11678;BME280;5895;41.950;24.372;2023-07-13T07:16:09;87479.59;;;24.95;54.46
11678;BME280;5895;41.950;24.372;2023-07-13T07:18:36;87483.34;;;25.08;53.22
11678;BME280;5895;41.950;24.372;2023-07-13T07:21:03;87477.38;;;25.16;53.37
11678;BME280;5895;41.950;24.372;2023-07-13T07:23:32;87474.31;;;25.22;52.38
11678;BME280;5895;41.950;24.372;2023-07-13T07:25:59;87481.59;;;25.30;52.56
11678;BME280;5895;41.950;24.372;2023-07-13T07:28:27;87482.00;;;25.38;52.39
11678;BME280;5895;41.950;24.372;2023-07-13T07:30:56;87485.03;;;25.45;52.00
11678;BME280;5895;41.950;24.372;2023-07-13T07:33:23;87478.22;;;25.52;51.25
11678;BME280;5895;41.950;24.372;2023-07-13T07:35:51;87473.31;;;25.59;50.89
11678;BME280;5895;41.950;24.372;2023-07-13T07:38:19;87487.19;;;25.70;51.40
11678;BME280;5895;41.950;24.372;2023-07-13T07:40:48;87477.44;;;25.79;50.71
11678;BME280;5895;41.950;24.372;2023-07-13T07:43:15;87475.03;;;25.92;51.53
11678;BME280;5895;41.950;24.372;2023-07-13T07:45:44;87475.91;;;26.01;50.05
11678;BME280;5895;41.950;24.372;2023-07-13T07:48:11;87481.47;;;26.13;50.64
11678;BME280;5895;41.950;24.372;2023-07-13T07:50:39;87488.16;;;26.24;50.89
11678;BME280;5895;41.950;24.372;2023-07-13T07:53:06;87485.94;;;26.40;49.68
11678;BME280;5895;41.950;24.372;2023-07-13T07:55:36;87484.16;;;26.49;49.89
11678;BME280;5895;41.950;24.372;2023-07-13T07:58:05;87487.03;;;26.61;49.66
11678;BME280;5895;41.950;24.372;2023-07-13T08:00:32;87487.41;;;26.69;49.67
11678;BME280;5895;41.950;24.372;2023-07-13T08:03:01;87487.94;;;26.79;49.36
11678;BME280;5895;41.950;24.372;2023-07-13T08:05:29;87488.28;;;26.86;49.30
11678;BME280;5895;41.950;24.372;2023-07-13T08:07:56;87492.09;;;26.94;48.16
11678;BME280;5895;41.950;24.372;2023-07-13T08:10:23;87492.75;;;27.00;47.64
11678;BME280;5895;41.950;24.372;2023-07-13T08:12:51;87487.81;;;27.07;48.48
11678;BME280;5895;41.950;24.372;2023-07-13T08:15:20;87489.25;;;27.13;47.43
11678;BME280;5895;41.950;24.372;2023-07-13T08:17:48;87483.78;;;27.18;47.44
11678;BME280;5895;41.950;24.372;2023-07-13T08:20:16;87486.31;;;27.23;47.41
11678;BME280;5895;41.950;24.372;2023-07-13T08:22:43;87487.91;;;27.33;47.26
11678;BME280;5895;41.950;24.372;2023-07-13T08:25:11;87485.09;;;27.38;47.05
11678;BME280;5895;41.950;24.372;2023-07-13T08:27:38;87493.75;;;27.43;46.48
11678;BME280;5895;41.950;24.372;2023-07-13T08:30:06;87488.28;;;27.49;46.37
11678;BME280;5895;41.950;24.372;2023-07-13T08:32:36;87483.72;;;27.49;44.59
11678;BME280;5895;41.950;24.372;2023-07-13T08:35:05;87479.88;;;27.64;47.28
11678;BME280;5895;41.950;24.372;2023-07-13T08:37:32;87477.88;;;27.70;46.72
11678;BME280;5895;41.950;24.372;2023-07-13T08:40:00;87480.41;;;27.83;47.10
11678;BME280;5895;41.950;24.372;2023-07-13T08:42:35;87491.41;;;27.90;43.91
11678;BME280;5895;41.950;24.372;2023-07-13T08:45:11;87484.69;;;28.02;44.17
11678;BME280;5895;41.950;24.372;2023-07-13T08:47:45;87475.59;;;28.20;43.89
11678;BME280;5895;41.950;24.372;2023-07-13T08:50:17;87482.19;;;28.31;44.94
11678;BME280;5895;41.950;24.372;2023-07-13T08:52:46;87480.00;;;28.33;45.99
11678;BME280;5895;41.950;24.372;2023-07-13T08:55:16;87485.69;;;28.40;45.11
11678;BME280;5895;41.950;24.372;2023-07-13T08:57:56;87483.66;;;28.46;45.45
11678;BME280;5895;41.950;24.372;2023-07-13T09:00:38;87484.13;;;28.57;41.33
11678;BME280;5895;41.950;24.372;2023-07-13T09:03:18;87484.41;;;28.64;41.12
11678;BME280;5895;41.950;24.372;2023-07-13T09:05:51;87486.13;;;28.77;44.59
11678;BME280;5895;41.950;24.372;2023-07-13T09:08:35;87482.19;;;28.83;41.10
11678;BME280;5895;41.950;24.372;2023-07-13T09:11:17;87480.13;;;28.89;41.95
11678;BME280;5895;41.950;24.372;2023-07-13T09:13:56;87471.03;;;28.98;42.40
11678;BME280;5895;41.950;24.372;2023-07-13T09:16:27;87474.16;;;29.09;45.15
11678;BME280;5895;41.950;24.372;2023-07-13T09:18:59;87476.19;;;29.12;42.87
11678;BME280;5895;41.950;24.372;2023-07-13T09:21:30;87473.94;;;29.23;45.53
11678;BME280;5895;41.950;24.372;2023-07-13T09:24:24;87469.81;;;29.34;43.43
11678;BME280;5895;41.950;24.372;2023-07-13T09:26:48;87467.91;;;29.43;45.07
11678;BME280;5895;41.950;24.372;2023-07-13T09:29:27;87465.53;;;29.59;43.16
11678;BME280;5895;41.950;24.372;2023-07-13T09:31:57;87469.44;;;29.62;43.82
11678;BME280;5895;41.950;24.372;2023-07-13T09:34:28;87466.44;;;29.63;43.00
11678;BME280;5895;41.950;24.372;2023-07-13T09:36:56;87464.97;;;29.74;44.77
11678;BME280;5895;41.950;24.372;2023-07-13T09:39:26;87459.06;;;29.90;43.96
11678;BME280;5895;41.950;24.372;2023-07-13T09:41:59;87455.38;;;30.03;41.37
11678;BME280;5895;41.950;24.372;2023-07-13T09:44:30;87457.69;;;30.13;44.25
11678;BME280;5895;41.950;24.372;2023-07-13T09:46:58;87445.94;;;30.26;44.58
11678;BME280;5895;41.950;24.372;2023-07-13T09:49:27;87445.69;;;30.40;44.13
11678;BME280;5895;41.950;24.372;2023-07-13T09:52:00;87442.56;;;30.59;42.79
11678;BME280;5895;41.950;24.372;2023-07-13T09:54:28;87443.19;;;30.77;44.13
11678;BME280;5895;41.950;24.372;2023-07-13T09:56:57;87442.44;;;30.76;43.93
11678;BME280;5895;41.950;24.372;2023-07-13T09:59:29;87444.31;;;30.76;42.60
11678;BME280;5895;41.950;24.372;2023-07-13T10:01:57;87447.44;;;30.78;43.71
11678;BME280;5895;41.950;24.372;2023-07-13T10:04:31;87442.28;;;30.73;40.97
11678;BME280;5895;41.950;24.372;2023-07-13T10:07:06;87441.16;;;30.74;38.39
11678;BME280;5895;41.950;24.372;2023-07-13T10:09:34;87442.72;;;30.75;43.73
11678;BME280;5895;41.950;24.372;2023-07-13T10:12:01;87434.63;;;30.84;43.73
11678;BME280;5895;41.950;24.372;2023-07-13T10:14:29;87433.09;;;30.95;42.86
11678;BME280;5895;41.950;24.372;2023-07-13T10:16:59;87429.31;;;31.08;42.21
11678;BME280;5895;41.950;24.372;2023-07-13T10:19:32;87427.78;;;31.19;37.30
11678;BME280;5895;41.950;24.372;2023-07-13T10:22:04;87419.53;;;31.24;42.46
11678;BME280;5895;41.950;24.372;2023-07-13T10:24:38;87426.19;;;31.39;43.09
11678;BME280;5895;41.950;24.372;2023-07-13T10:27:15;87419.03;;;31.55;40.08
11678;BME280;5895;41.950;24.372;2023-07-13T10:29:52;87411.34;;;31.66;41.33
11678;BME280;5895;41.950;24.372;2023-07-13T10:32:22;87412.13;;;31.79;42.41
11678;BME280;5895;41.950;24.372;2023-07-13T10:34:53;87407.09;;;31.90;42.08
11678;BME280;5895;41.950;24.372;2023-07-13T10:37:24;87415.56;;;32.04;42.21
11678;BME280;5895;41.950;24.372;2023-07-13T10:39:55;87413.31;;;32.18;41.69
11678;BME280;5895;41.950;24.372;2023-07-13T10:42:28;87415.44;;;32.25;40.56
11678;BME280;5895;41.950;24.372;2023-07-13T10:44:56;87411.31;;;32.27;42.91
11678;BME280;5895;41.950;24.372;2023-07-13T10:47:24;87408.50;;;32.36;44.30
11678;BME280;5895;41.950;24.372;2023-07-13T10:49:55;87407.34;;;32.49;43.58
11678;BME280;5895;41.950;24.372;2023-07-13T10:52:42;87398.50;;;32.77;43.04
11678;BME280;5895;41.950;24.372;2023-07-13T10:55:30;87411.78;;;32.98;43.03
11678;BME280;5895;41.950;24.372;2023-07-13T10:58:00;87408.25;;;33.09;44.50
11678;BME280;5895;41.950;24.372;2023-07-13T11:00:31;87408.16;;;33.22;44.51
11678;BME280;5895;41.950;24.372;2023-07-13T11:02:59;87411.25;;;33.36;44.61
11678;BME280;5895;41.950;24.372;2023-07-13T11:05:31;87408.59;;;33.52;44.60
11678;BME280;5895;41.950;24.372;2023-07-13T11:08:12;87406.16;;;33.62;41.46
11678;BME280;5895;41.950;24.372;2023-07-13T11:10:49;87408.25;;;33.69;43.09
11678;BME280;5895;41.950;24.372;2023-07-13T11:13:56;87405.72;;;33.76;41.63
11678;BME280;5895;41.950;24.372;2023-07-13T11:16:47;87405.28;;;33.90;41.32
11678;BME280;5895;41.950;24.372;2023-07-13T11:19:27;87402.06;;;34.00;41.34
11678;BME280;5895;41.950;24.372;2023-07-13T11:22:13;87408.22;;;34.16;41.51
11678;BME280;5895;41.950;24.372;2023-07-13T11:25:00;87408.72;;;34.22;40.80
11678;BME280;5895;41.950;24.372;2023-07-13T11:27:49;87398.91;;;34.30;40.39
11678;BME280;5895;41.950;24.372;2023-07-13T11:30:24;87397.53;;;34.39;41.19
11678;BME280;5895;41.950;24.372;2023-07-13T11:33:03;87400.88;;;34.49;39.40
11678;BME280;5895;41.950;24.372;2023-07-13T11:35:35;87400.16;;;34.52;43.50
11678;BME280;5895;41.950;24.372;2023-07-13T11:38:13;87396.16;;;34.45;40.40
11678;BME280;5895;41.950;24.372;2023-07-13T11:40:43;87397.13;;;34.53;44.29
11678;BME280;5895;41.950;24.372;2023-07-13T11:43:14;87396.56;;;34.63;42.40
11678;BME280;5895;41.950;24.372;2023-07-13T11:45:41;87396.56;;;34.63;42.89
11678;BME280;5895;41.950;24.372;2023-07-13T11:48:23;87385.78;;;34.63;38.65
11678;BME280;5895;41.950;24.372;2023-07-13T11:50:53;87394.41;;;34.72;42.85
11678;BME280;5895;41.950;24.372;2023-07-13T11:53:27;87392.22;;;34.78;40.39
11678;BME280;5895;41.950;24.372;2023-07-13T11:55:55;87405.06;;;34.85;42.58
11678;BME280;5895;41.950;24.372;2023-07-13T11:58:25;87391.56;;;34.85;41.49
11678;BME280;5895;41.950;24.372;2023-07-13T12:00:55;87393.00;;;34.79;42.41
11678;BME280;5895;41.950;24.372;2023-07-13T12:03:26;87391.22;;;34.67;42.41
11678;BME280;5895;41.950;24.372;2023-07-13T12:06:00;87397.13;;;34.53;38.92
11678;BME280;5895;41.950;24.372;2023-07-13T12:08:29;87391.78;;;34.57;42.21
11678;BME280;5895;41.950;24.372;2023-07-13T12:10:59;87382.31;;;34.63;41.71
11678;BME280;5895;41.950;24.372;2023-07-13T12:13:28;87387.19;;;34.57;41.23
11678;BME280;5895;41.950;24.372;2023-07-13T12:15:56;87384.91;;;34.59;40.76
11678;BME280;5895;41.950;24.372;2023-07-13T12:18:29;87387.34;;;34.64;37.74
11678;BME280;5895;41.950;24.372;2023-07-13T12:20:59;87379.25;;;34.64;40.85
11678;BME280;5895;41.950;24.372;2023-07-13T12:23:31;87380.53;;;34.70;39.58
11678;BME280;5895;41.950;24.372;2023-07-13T12:26:01;87376.81;;;34.79;40.43
11678;BME280;5895;41.950;24.372;2023-07-13T12:28:32;87377.53;;;34.76;39.52
11678;BME280;5895;41.950;24.372;2023-07-13T12:31:03;87367.94;;;34.78;39.71
11678;BME280;5895;41.950;24.372;2023-07-13T12:33:32;87375.41;;;34.85;41.15
11678;BME280;5895;41.950;24.372;2023-07-13T12:36:01;87373.91;;;34.87;40.56
11678;BME280;5895;41.950;24.372;2023-07-13T12:38:31;87363.06;;;34.84;38.03
11678;BME280;5895;41.950;24.372;2023-07-13T12:41:01;87367.91;;;34.75;40.18
11678;BME280;5895;41.950;24.372;2023-07-13T12:43:31;87368.41;;;34.80;40.65
11678;BME280;5895;41.950;24.372;2023-07-13T12:46:04;87364.91;;;34.80;39.89
11678;BME280;5895;41.950;24.372;2023-07-13T12:48:38;87358.19;;;34.70;36.50
11678;BME280;5895;41.950;24.372;2023-07-13T12:51:10;87358.81;;;34.63;34.90
11678;BME280;5895;41.950;24.372;2023-07-13T12:53:41;87357.66;;;34.45;37.62
11678;BME280;5895;41.950;24.372;2023-07-13T12:56:18;87354.00;;;34.37;34.61
11678;BME280;5895;41.950;24.372;2023-07-13T12:58:47;87363.81;;;34.45;40.81
11678;BME280;5895;41.950;24.372;2023-07-13T13:01:21;87362.94;;;34.57;40.13
11678;BME280;5895;41.950;24.372;2023-07-13T13:03:50;87358.47;;;34.65;40.04
11678;BME280;5895;41.950;24.372;2023-07-13T13:06:24;87359.38;;;34.72;37.14
11678;BME280;5895;41.950;24.372;2023-07-13T13:08:55;87362.91;;;34.77;38.32
11678;BME280;5895;41.950;24.372;2023-07-13T13:11:25;87357.13;;;34.75;39.25
11678;BME280;5895;41.950;24.372;2023-07-13T13:13:53;87350.94;;;34.55;39.60
11678;BME280;5895;41.950;24.372;2023-07-13T13:16:22;87356.97;;;34.48;38.47